Time;durP1;ratioP1;P1;durP2;ratioP2;P2;SDS_P1;SDS_P2;PMS_P1;PMS_P2;Temp;Humidity;BMP_temperature;BMP_pressure;BME280_temperature;BME280_humidity;BME280_pressure;Samples;Min_cycle;Max_cycle;Signal;HPM_P1;HPM_P2
2023/05/08 00:00:00;;;;;;;;;;;16.40;99.90;16.60;99924.00;;;;338107;28;83510;-91
2023/05/08 00:00:12;;;;;;;;;;;16.40;99.90;16.70;99919.00;;;;338785;28;95529;-92
2023/05/08 00:00:25;;;;;;;;;;;16.50;99.90;16.70;99920.00;;;;342093;28;83414;-91
2023/05/08 00:00:37;;;;;;;;;;;16.50;99.90;16.70;99926.00;;;;340065;28;94855;-91
2023/05/08 00:00:49;;;;;;;;;;;16.40;99.90;16.70;99926.00;;;;339315;28;83265;-91
2023/05/08 00:01:01;;;;;;;;;;;16.50;99.90;16.60;99918.00;;;;338594;28;97385;-92
2023/05/08 00:01:14;;;;;;;;;;;16.40;99.90;16.70;99922.00;;;;339468;28;82578;-92
2023/05/08 00:01:26;;;;;;;;;;;16.40;99.90;16.60;99922.00;;;;337526;28;92968;-91
2023/05/08 00:01:37;;;;;;;;;;;16.50;99.90;16.60;99936.00;;;;336526;28;82622;-92
2023/05/08 00:01:49;;;;;;;;;;;16.50;99.90;16.60;99921.00;;;;338576;28;96696;-92
2023/05/08 00:02:01;;;;;;;;;;;16.50;99.90;16.50;99925.00;;;;337947;28;83631;-91
2023/05/08 00:02:13;;;;;;;;;;;16.40;99.90;16.60;99924.00;;;;338665;28;95608;-91
2023/05/08 00:02:25;;;;;;;;;;;16.40;99.90;16.50;99926.00;;;;337978;28;83306;-90
2023/05/08 00:02:39;;;;;;;;;;;16.40;99.90;16.50;99933.00;;;;337026;28;97692;-92
2023/05/08 00:02:51;;;;;;;;;;;16.40;99.90;16.50;99927.00;;;;338156;28;82638;-92
2023/05/08 00:03:03;;;;;;;;;;;16.40;99.90;16.50;99935.00;;;;337562;28;93588;-92
2023/05/08 00:03:15;;;;;;;;;;;16.50;99.90;16.50;99929.00;;;;337999;28;83512;-91
2023/05/08 00:03:27;;;;;;;;;;;16.50;99.90;16.50;99925.00;;;;335963;28;94425;-91
2023/05/08 00:03:39;;;;;;;;;;;16.40;99.90;16.50;99929.00;;;;335352;29;83309;-91
2023/05/08 00:03:51;;;;;;;;;;;16.40;99.90;16.50;99927.00;;;;337223;28;93846;-91
2023/05/08 00:04:03;;;;;;;;;;;16.40;99.90;16.50;99926.00;;;;339288;28;82581;-92
2023/05/08 00:04:19;;;;;;;;;;;16.40;99.90;16.60;99930.00;;;;338781;28;95550;-92
2023/05/08 00:04:31;;;;;;;;;;;16.40;99.90;16.60;99923.00;;;;339334;28;83586;-91
2023/05/08 00:04:43;;;;;;;;;;;16.50;99.90;16.60;99927.00;;;;339666;28;95627;-91
2023/05/08 00:04:55;;;;;;;;;;;16.40;99.90;16.50;99928.00;;;;337967;28;82614;-92
2023/05/08 00:05:06;;;;;;;;;;;16.40;99.90;16.50;99925.00;;;;337359;28;94539;-92
2023/05/08 00:05:18;;;;;;;;;;;16.40;99.90;16.60;99923.00;;;;338201;28;83459;-92
2023/05/08 00:05:30;;;;;;;;;;;16.40;99.90;16.60;99923.00;;;;334800;29;95271;-91
2023/05/08 00:05:42;;;;;;;;;;;16.40;99.90;16.60;99915.00;;;;336936;28;82445;-92
2023/05/08 00:05:56;;;;;;;;;;;16.40;99.90;16.60;99920.00;;;;337499;28;91633;-91
2023/05/08 00:06:08;;;;;;;;;;;16.50;99.90;16.60;99923.00;;;;339524;28;83349;-91
2023/05/08 00:06:20;;;;;;;;;;;16.40;99.90;16.50;99919.00;;;;338837;28;92572;-91
2023/05/08 00:06:32;;;;;;;;;;;16.40;99.90;16.50;99923.00;;;;336956;28;82625;-92
2023/05/08 00:06:44;;;;;;;;;;;16.40;99.90;16.50;99924.00;;;;337152;28;97568;-92
2023/05/08 00:06:55;;;;;;;;;;;16.40;99.90;16.50;99927.00;;;;339346;28;82641;-91
2023/05/08 00:07:07;;;;;;;;;;;16.40;99.90;16.50;99925.00;;;;335604;28;93462;-92
2023/05/08 00:07:19;;;;;;;;;;;16.40;99.90;16.60;99928.00;;;;339273;28;82581;-92
2023/05/08 00:07:31;;;;;;;;;;;16.40;99.90;16.60;99927.00;;;;341440;28;93004;-92
2023/05/08 00:07:43;;;;;;;;;;;16.40;99.90;16.50;99928.00;;;;338073;28;83658;-92
2023/05/08 00:08:00;;;;;;;;;;;16.40;99.90;16.60;99925.00;;;;338577;28;92640;-92
2023/05/08 00:08:11;;;;;;;;;;;16.40;99.90;16.50;99927.00;;;;339487;28;82624;-92
2023/05/08 00:08:24;;;;;;;;;;;16.40;99.90;16.60;99921.00;;;;338674;28;96316;-91
2023/05/08 00:08:36;;;;;;;;;;;16.40;99.90;16.60;99928.00;;;;339495;28;83463;-92
2023/05/08 00:08:48;;;;;;;;;;;16.40;99.90;16.70;99929.00;;;;336950;28;93060;-92
2023/05/08 00:08:59;;;;;;;;;;;16.40;99.90;16.70;99920.00;;;;335327;29;83484;-91
2023/05/08 00:09:11;;;;;;;;;;;16.40;99.90;16.70;99926.00;;;;338449;28;94322;-91
2023/05/08 00:09:23;;;;;;;;;;;16.40;99.90;16.70;99928.00;;;;338374;28;82599;-91
2023/05/08 00:09:35;;;;;;;;;;;16.40;99.90;16.70;99923.00;;;;337307;28;94469;-92
2023/05/08 00:09:47;;;;;;;;;;;16.50;99.90;16.80;99920.00;;;;336922;28;82300;-91
2023/05/08 00:09:58;;;;;;;;;;;16.40;99.90;16.80;99920.00;;;;338727;28;95693;-91
2023/05/08 00:10:11;;;;;;;;;;;16.40;99.90;16.90;99927.00;;;;340547;28;82587;-91
2023/05/08 00:10:23;;;;;;;;;;;16.50;99.90;16.90;99929.00;;;;341400;28;94636;-93
2023/05/08 00:10:35;;;;;;;;;;;16.50;99.90;16.90;99925.00;;;;338113;28;82388;-92
2023/05/08 00:10:46;;;;;;;;;;;16.50;99.90;16.90;99922.00;;;;337350;28;94169;-91
2023/05/08 00:10:58;;;;;;;;;;;16.50;99.90;16.80;99914.00;;;;340784;28;83466;-92
2023/05/08 00:11:10;;;;;;;;;;;16.50;99.90;16.80;99921.00;;;;340009;28;93112;-92
2023/05/08 00:11:22;;;;;;;;;;;16.50;99.90;16.80;99912.00;;;;339601;28;83372;-92
2023/05/08 00:11:34;;;;;;;;;;;16.50;99.90;16.80;99916.00;;;;337423;28;94535;-91
2023/05/08 00:11:46;;;;;;;;;;;16.50;99.90;16.80;99912.00;;;;340755;28;83402;-92
2023/05/08 00:11:57;;;;;;;;;;;16.50;99.90;16.70;99923.00;;;;337404;28;94284;-92
2023/05/08 00:12:09;;;;;;;;;;;16.50;99.90;16.80;99914.00;;;;339183;28;83437;-91
2023/05/08 00:12:22;;;;;;;;;;;16.50;99.90;16.90;99918.00;;;;338795;28;93610;-92
2023/05/08 00:12:34;;;;;;;;;;;16.50;99.90;16.90;99919.00;;;;340848;28;82527;-91
2023/05/08 00:12:46;;;;;;;;;;;16.50;99.90;17.00;99918.00;;;;338601;28;93158;-91
2023/05/08 00:12:58;;;;;;;;;;;16.50;99.90;16.90;99921.00;;;;338256;28;83256;-91
2023/05/08 00:13:09;;;;;;;;;;;16.50;99.90;17.00;99923.00;;;;337352;28;94160;-91
2023/05/08 00:13:21;;;;;;;;;;;16.50;99.90;17.00;99919.00;;;;339340;28;82617;-92
2023/05/08 00:13:33;;;;;;;;;;;16.50;99.90;17.00;99916.00;;;;338711;28;93131;-92
2023/05/08 00:13:45;;;;;;;;;;;16.60;99.90;16.90;99926.00;;;;342058;28;82564;-92
2023/05/08 00:13:57;;;;;;;;;;;16.60;99.90;16.90;99920.00;;;;338468;28;96097;-91
2023/05/08 00:14:09;;;;;;;;;;;16.60;99.90;16.90;99925.00;;;;338055;28;83514;-92
2023/05/08 00:14:21;;;;;;;;;;;16.60;99.90;16.90;99914.00;;;;338625;28;93632;-92
2023/05/08 00:14:34;;;;;;;;;;;16.60;99.90;16.80;99918.00;;;;339431;28;82425;-92
2023/05/08 00:14:45;;;;;;;;;;;16.60;99.90;16.80;99906.00;;;;336070;28;93751;-91
2023/05/08 00:14:57;;;;;;;;;;;16.60;99.90;16.80;99911.00;;;;338209;28;83060;-91
2023/05/08 00:15:09;;;;;;;;;;;16.60;99.90;16.80;99921.00;;;;338690;28;91920;-91
2023/05/08 00:15:21;;;;;;;;;;;16.60;99.90;16.80;99912.00;;;;338137;28;83159;-91
2023/05/08 00:15:35;;;;;;;;;;;16.60;99.90;16.90;99915.00;;;;336048;28;96058;-92
2023/05/08 00:15:46;;;;;;;;;;;16.60;99.90;16.90;99913.00;;;;336630;28;83592;-92
2023/05/08 00:15:58;;;;;;;;;;;16.60;99.90;16.80;99917.00;;;;337146;28;96612;-91
2023/05/08 00:16:11;;;;;;;;;;;16.60;99.90;16.80;99914.00;;;;339063;28;83573;-92
2023/05/08 00:16:23;;;;;;;;;;;16.60;99.90;16.80;99912.00;;;;335913;28;95711;-92
2023/05/08 00:16:36;;;;;;;;;;;16.60;99.90;16.80;99913.00;;;;336627;28;82577;-92
2023/05/08 00:16:47;;;;;;;;;;;16.60;99.90;16.80;99912.00;;;;338653;28;97505;-91
2023/05/08 00:17:01;;;;;;;;;;;16.60;99.90;16.70;99912.00;;;;336847;28;83370;-91
2023/05/08 00:17:12;;;;;;;;;;;16.60;99.90;16.70;99913.00;;;;339744;28;96829;-91
2023/05/08 00:17:24;;;;;;;;;;;16.60;99.90;16.70;99917.00;;;;340749;28;82463;-92
2023/05/08 00:17:36;;;;;;;;;;;16.60;99.90;16.60;99917.00;;;;336046;28;97069;-92
2023/05/08 00:17:48;;;;;;;;;;;16.60;99.90;16.60;99920.00;;;;338070;28;82498;-91
2023/05/08 00:18:00;;;;;;;;;;;16.60;99.90;16.60;99908.00;;;;338673;28;95951;-91
2023/05/08 00:18:12;;;;;;;;;;;16.60;99.90;16.60;99911.00;;;;338130;28;83310;-91
2023/05/08 00:18:24;;;;;;;;;;;16.60;99.90;16.50;99912.00;;;;338509;28;95591;-92
2023/05/08 00:18:37;;;;;;;;;;;16.60;99.90;16.50;99914.00;;;;336652;28;82553;-91
2023/05/08 00:18:49;;;;;;;;;;;16.50;99.90;16.50;99916.00;;;;339949;28;93330;-91
2023/05/08 00:19:01;;;;;;;;;;;16.50;99.90;16.50;99915.00;;;;339309;28;82592;-93
2023/05/08 00:19:13;;;;;;;;;;;16.50;99.90;16.40;99913.00;;;;335878;28;94197;-91
2023/05/08 00:19:25;;;;;;;;;;;16.60;99.90;16.50;99914.00;;;;338160;28;83377;-91
2023/05/08 00:19:37;;;;;;;;;;;16.50;99.90;16.60;99910.00;;;;337244;28;96466;-92
2023/05/08 00:19:51;;;;;;;;;;;16.50;99.90;16.70;99908.00;;;;336552;28;83456;-92
2023/05/08 00:20:04;;;;;;;;;;;16.50;99.90;16.70;99910.00;;;;338349;28;92245;-92
2023/05/08 00:20:16;;;;;;;;;;;16.50;99.90;16.70;99917.00;;;;339521;28;83273;-91
2023/05/08 00:20:27;;;;;;;;;;;16.50;99.90;16.70;99912.00;;;;337165;28;95600;-91
2023/05/08 00:20:40;;;;;;;;;;;16.50;99.90;16.70;99912.00;;;;339431;28;83509;-91
2023/05/08 00:20:52;;;;;;;;;;;16.50;99.90;16.70;99914.00;;;;337337;28;94247;-92
2023/05/08 00:21:04;;;;;;;;;;;16.50;99.90;16.60;99912.00;;;;338131;28;83626;-92
2023/05/08 00:21:16;;;;;;;;;;;16.50;99.90;16.50;99920.00;;;;341151;28;95703;-92
2023/05/08 00:21:28;;;;;;;;;;;16.50;99.90;16.50;99917.00;;;;339186;28;83504;-91
2023/05/08 00:21:41;;;;;;;;;;;16.40;99.90;16.50;99913.00;;;;336147;28;92788;-91
2023/05/08 00:21:54;;;;;;;;;;;16.40;99.90;16.50;99921.00;;;;339199;28;83559;-92
2023/05/08 00:22:05;;;;;;;;;;;16.40;99.90;16.50;99914.00;;;;338737;28;93742;-91
2023/05/08 00:22:18;;;;;;;;;;;16.50;99.90;16.50;99912.00;;;;336655;28;83558;-91
2023/05/08 00:22:30;;;;;;;;;;;16.40;99.90;16.50;99914.00;;;;339828;28;95305;-91
2023/05/08 00:22:42;;;;;;;;;;;16.40;99.90;16.50;99918.00;;;;339495;28;83323;-92
2023/05/08 00:22:54;;;;;;;;;;;16.40;99.90;16.50;99912.00;;;;337125;28;97414;-91
2023/05/08 00:23:06;;;;;;;;;;;16.40;99.90;16.50;99915.00;;;;337783;28;83557;-91
2023/05/08 00:23:20;;;;;;;;;;;16.40;99.90;16.50;99914.00;;;;337217;28;95189;-91
2023/05/08 00:23:32;;;;;;;;;;;16.40;99.90;16.50;99915.00;;;;338163;28;82373;-92
2023/05/08 00:23:44;;;;;;;;;;;16.40;99.90;16.40;99927.00;;;;334579;28;94602;-91
2023/05/08 00:23:56;;;;;;;;;;;16.40;99.90;16.40;99915.00;;;;336846;28;83486;-91
2023/05/08 00:24:08;;;;;;;;;;;16.40;99.90;16.40;99913.00;;;;336037;28;94505;-92
2023/05/08 00:24:20;;;;;;;;;;;16.40;99.90;16.40;99916.00;;;;336731;28;83340;-92
2023/05/08 00:24:32;;;;;;;;;;;16.40;99.90;16.40;99918.00;;;;338428;28;95469;-91
2023/05/08 00:24:44;;;;;;;;;;;16.40;99.90;16.50;99919.00;;;;340800;28;82471;-91
2023/05/08 00:24:55;;;;;;;;;;;16.30;99.90;16.50;99913.00;;;;337275;28;96954;-92
2023/05/08 00:25:07;;;;;;;;;;;16.40;99.90;16.50;99916.00;;;;338090;28;83372;-91
2023/05/08 00:25:19;;;;;;;;;;;16.40;99.90;16.50;99920.00;;;;338552;28;94841;-92
2023/05/08 00:25:34;;;;;;;;;;;16.40;99.90;16.50;99916.00;;;;335638;29;82171;-91
2023/05/08 00:25:45;;;;;;;;;;;16.40;99.90;16.50;99916.00;;;;338393;28;94374;-90
2023/05/08 00:25:57;;;;;;;;;;;16.30;99.90;16.60;99913.00;;;;339514;28;83274;-91
2023/05/08 00:26:09;;;;;;;;;;;16.30;99.90;16.60;99920.00;;;;337432;28;93077;-91
2023/05/08 00:26:21;;;;;;;;;;;16.30;99.90;16.60;99916.00;;;;336809;28;83148;-92
2023/05/08 00:26:33;;;;;;;;;;;16.30;99.90;16.60;99913.00;;;;337268;28;95204;-91
2023/05/08 00:26:44;;;;;;;;;;;16.40;99.90;16.60;99911.00;;;;339453;28;82378;-92
2023/05/08 00:26:56;;;;;;;;;;;16.40;99.90;16.50;99913.00;;;;337339;28;94697;-91
2023/05/08 00:27:08;;;;;;;;;;;16.40;99.90;16.50;99916.00;;;;337900;28;83458;-91
2023/05/08 00:27:23;;;;;;;;;;;16.30;99.90;16.60;99914.00;;;;337248;28;94611;-92
2023/05/08 00:27:35;;;;;;;;;;;16.30;99.90;16.70;99914.00;;;;339454;28;83098;-92
2023/05/08 00:27:46;;;;;;;;;;;16.30;99.90;16.70;99913.00;;;;337193;28;96209;-90
2023/05/08 00:27:59;;;;;;;;;;;16.40;99.90;16.70;99910.00;;;;335501;29;83231;-92
2023/05/08 00:28:11;;;;;;;;;;;16.40;99.90;16.70;99915.00;;;;336053;28;92011;-91
2023/05/08 00:28:23;;;;;;;;;;;16.40;99.90;16.70;99916.00;;;;339332;28;82556;-91
2023/05/08 00:28:34;;;;;;;;;;;16.40;99.90;16.70;99912.00;;;;338395;28;95525;-92
2023/05/08 00:28:46;;;;;;;;;;;16.40;99.90;16.60;99907.00;;;;338199;28;82511;-92
2023/05/08 00:28:58;;;;;;;;;;;16.40;99.90;16.50;99909.00;;;;338620;28;96438;-91
2023/05/08 00:29:10;;;;;;;;;;;16.40;99.90;16.50;99909.00;;;;340746;28;83327;-92
2023/05/08 00:29:22;;;;;;;;;;;16.40;99.90;16.60;99915.00;;;;339938;28;95653;-91
2023/05/08 00:29:34;;;;;;;;;;;16.40;99.90;16.70;99913.00;;;;339168;28;83288;-92
2023/05/08 00:29:47;;;;;;;;;;;16.40;99.90;16.70;99913.00;;;;336052;28;95577;-92
2023/05/08 00:29:59;;;;;;;;;;;16.40;99.90;16.60;99908.00;;;;339494;28;83116;-91
2023/05/08 00:30:11;;;;;;;;;;;16.40;99.90;16.70;99911.00;;;;338515;28;94901;-91
2023/05/08 00:30:23;;;;;;;;;;;16.40;99.90;16.70;99912.00;;;;338155;28;82557;-92
2023/05/08 00:30:35;;;;;;;;;;;16.40;99.90;16.80;99915.00;;;;336410;28;93264;-92
2023/05/08 00:30:47;;;;;;;;;;;16.40;99.90;16.60;99907.00;;;;339445;28;82531;-91
2023/05/08 00:31:00;;;;;;;;;;;16.40;99.90;16.70;99912.00;;;;338586;28;95541;-91
2023/05/08 00:31:12;;;;;;;;;;;16.40;99.90;16.60;99911.00;;;;336558;28;83518;-91
2023/05/08 00:31:25;;;;;;;;;;;16.40;99.90;16.70;99904.00;;;;337433;28;93762;-92
2023/05/08 00:31:37;;;;;;;;;;;16.40;99.90;16.70;99908.00;;;;336665;28;83529;-91
2023/05/08 00:31:49;;;;;;;;;;;16.40;99.90;16.60;99909.00;;;;337099;28;95980;-92
2023/05/08 00:32:01;;;;;;;;;;;16.40;99.90;16.60;99901.00;;;;338107;28;83416;-90
2023/05/08 00:32:12;;;;;;;;;;;16.40;99.90;16.70;99912.00;;;;336091;28;94287;-91
2023/05/08 00:32:25;;;;;;;;;;;16.40;99.90;16.60;99915.00;;;;340477;28;83617;-90
2023/05/08 00:32:37;;;;;;;;;;;16.40;99.90;16.50;99912.00;;;;338494;28;96541;-90
2023/05/08 00:32:48;;;;;;;;;;;16.50;99.90;16.60;99913.00;;;;339217;28;82563;-91
2023/05/08 00:33:00;;;;;;;;;;;16.40;99.90;16.70;99910.00;;;;338671;28;93935;-91
2023/05/08 00:33:12;;;;;;;;;;;16.40;99.90;16.80;99909.00;;;;339182;28;82604;-92
2023/05/08 00:33:24;;;;;;;;;;;16.40;99.90;16.70;99916.00;;;;337466;28;93527;-93
2023/05/08 00:33:36;;;;;;;;;;;16.40;99.90;16.50;99913.00;;;;339456;28;83491;-91
2023/05/08 00:33:48;;;;;;;;;;;16.40;99.90;16.50;99916.00;;;;337295;28;94519;-91
2023/05/08 00:34:00;;;;;;;;;;;16.40;99.90;16.50;99920.00;;;;335414;28;83572;-92
2023/05/08 00:34:11;;;;;;;;;;;16.40;99.90;16.40;99914.00;;;;337369;28;92424;-92
2023/05/08 00:34:23;;;;;;;;;;;16.30;99.90;16.40;99919.00;;;;338166;28;82437;-91
2023/05/08 00:34:35;;;;;;;;;;;16.30;99.90;16.30;99911.00;;;;336034;28;92699;-91
2023/05/08 00:34:47;;;;;;;;;;;16.30;99.90;16.50;99912.00;;;;339525;28;83277;-91
2023/05/08 00:34:58;;;;;;;;;;;16.30;99.90;16.60;99910.00;;;;336034;28;94730;-92
2023/05/08 00:35:10;;;;;;;;;;;16.30;99.90;16.70;99913.00;;;;333989;28;82572;-92
2023/05/08 00:35:22;;;;;;;;;;;16.30;99.90;16.70;99912.00;;;;336030;28;93341;-92
2023/05/08 00:35:34;;;;;;;;;;;16.30;99.90;16.60;99913.00;;;;337963;28;83590;-92
2023/05/08 00:35:46;;;;;;;;;;;16.40;99.90;16.40;99908.00;;;;337234;28;93747;-92
2023/05/08 00:35:59;;;;;;;;;;;16.30;99.90;16.50;99914.00;;;;338126;28;83515;-91
2023/05/08 00:36:11;;;;;;;;;;;16.30;99.90;16.40;99910.00;;;;338798;28;92950;-92
2023/05/08 00:36:23;;;;;;;;;;;16.30;99.90;16.50;99915.00;;;;339274;28;83507;-91
2023/05/08 00:36:36;;;;;;;;;;;16.30;99.90;16.50;99916.00;;;;337329;28;93127;-91
2023/05/08 00:36:48;;;;;;;;;;;16.30;99.90;16.40;99920.00;;;;339425;28;83447;-91
2023/05/08 00:37:00;;;;;;;;;;;16.30;99.90;16.30;99924.00;;;;337328;28;95189;-91
2023/05/08 00:37:11;;;;;;;;;;;16.30;99.90;16.50;99914.00;;;;337879;28;83624;-92
2023/05/08 00:37:23;;;;;;;;;;;16.30;99.90;16.40;99912.00;;;;339849;28;94711;-91
2023/05/08 00:37:36;;;;;;;;;;;16.30;99.90;16.50;99922.00;;;;338109;28;82344;-91
2023/05/08 00:37:48;;;;;;;;;;;16.20;99.90;16.40;99909.00;;;;337225;28;97078;-92
2023/05/08 00:38:00;;;;;;;;;;;16.20;99.90;16.30;99913.00;;;;339112;28;83538;-91
2023/05/08 00:38:12;;;;;;;;;;;16.20;99.90;16.20;99915.00;;;;337375;28;94114;-91
2023/05/08 00:38:23;;;;;;;;;;;16.20;99.90;16.20;99918.00;;;;339419;28;82467;-92
2023/05/08 00:38:35;;;;;;;;;;;16.20;99.90;16.20;99922.00;;;;337312;28;93457;-91
2023/05/08 00:38:47;;;;;;;;;;;16.20;99.90;16.30;99914.00;;;;336701;28;82631;-92
2023/05/08 00:38:59;;;;;;;;;;;16.20;99.90;16.20;99921.00;;;;335766;28;95873;-91
2023/05/08 00:39:11;;;;;;;;;;;16.20;99.90;16.20;99916.00;;;;336766;28;83474;-92
2023/05/08 00:39:23;;;;;;;;;;;16.10;99.90;16.10;99917.00;;;;338481;28;95486;-92
2023/05/08 00:39:35;;;;;;;;;;;16.10;99.90;16.10;99921.00;;;;338004;28;82480;-91
2023/05/08 00:39:47;;;;;;;;;;;16.10;99.90;16.10;99921.00;;;;337364;28;93402;-91
2023/05/08 00:39:59;;;;;;;;;;;16.10;99.90;16.10;99922.00;;;;340718;28;82406;-91
2023/05/08 00:40:11;;;;;;;;;;;16.10;99.90;16.10;99919.00;;;;338140;28;93103;-91
2023/05/08 00:40:23;;;;;;;;;;;16.10;99.90;16.10;99920.00;;;;336925;28;82455;-91
2023/05/08 00:40:35;;;;;;;;;;;16.00;99.90;16.10;99924.00;;;;337231;28;91953;-92
2023/05/08 00:40:47;;;;;;;;;;;16.00;99.90;16.10;99914.00;;;;340737;28;83488;-91
2023/05/08 00:41:00;;;;;;;;;;;16.00;99.90;16.10;99919.00;;;;335976;28;95291;-91
2023/05/08 00:41:12;;;;;;;;;;;16.00;99.90;16.10;99913.00;;;;338135;28;83422;-91
2023/05/08 00:41:23;;;;;;;;;;;16.00;99.90;16.20;99917.00;;;;338271;28;92365;-92
2023/05/08 00:41:36;;;;;;;;;;;16.00;99.90;16.30;99913.00;;;;336590;28;83516;-91
2023/05/08 00:41:47;;;;;;;;;;;16.00;99.90;16.30;99917.00;;;;337091;28;96773;-91
2023/05/08 00:41:59;;;;;;;;;;;16.00;99.90;16.20;99921.00;;;;336911;28;83230;-91
2023/05/08 00:42:11;;;;;;;;;;;16.00;99.90;16.20;99913.00;;;;337185;28;94221;-92
2023/05/08 00:42:23;;;;;;;;;;;16.00;99.90;16.20;99907.00;;;;340585;28;83580;-91
2023/05/08 00:42:35;;;;;;;;;;;16.00;99.90;16.20;99918.00;;;;339735;28;95399;-91
2023/05/08 00:42:46;;;;;;;;;;;16.00;99.90;16.10;99917.00;;;;339337;28;83359;-92
2023/05/08 00:42:58;;;;;;;;;;;16.00;99.90;16.10;99911.00;;;;338555;28;95418;-91
2023/05/08 00:43:10;;;;;;;;;;;16.00;99.90;16.10;99917.00;;;;339319;28;82501;-92
2023/05/08 00:43:27;;;;;;;;;;;16.00;99.90;16.10;99908.00;;;;338671;28;93448;-91
2023/05/08 00:43:39;;;;;;;;;;;16.00;99.90;16.30;99909.00;;;;340792;28;83472;-92
2023/05/08 00:43:51;;;;;;;;;;;16.00;99.90;16.20;99913.00;;;;340035;28;93918;-91
2023/05/08 00:44:03;;;;;;;;;;;16.00;99.90;16.20;99913.00;;;;340579;28;83425;-92
2023/05/08 00:44:15;;;;;;;;;;;16.00;99.90;16.20;99908.00;;;;337376;28;94121;-91
2023/05/08 00:44:26;;;;;;;;;;;16.00;99.90;16.20;99910.00;;;;340812;28;83268;-92
2023/05/08 00:44:39;;;;;;;;;;;16.00;99.90;16.30;99913.00;;;;337277;28;93318;-92
2023/05/08 00:44:51;;;;;;;;;;;16.00;99.90;16.20;99913.00;;;;338207;28;83389;-92
2023/05/08 00:45:03;;;;;;;;;;;16.00;99.90;16.20;99910.00;;;;338637;28;94049;-91
2023/05/08 00:45:15;;;;;;;;;;;16.00;99.90;16.20;99915.00;;;;339226;28;83514;-91
2023/05/08 00:45:34;;;;;;;;;;;16.00;99.90;16.20;99910.00;;;;338742;28;92906;-92
2023/05/08 00:45:45;;;;;;;;;;;16.00;99.90;16.10;99905.00;;;;339323;28;83583;-91
2023/05/08 00:45:58;;;;;;;;;;;16.00;99.90;16.10;99910.00;;;;338595;28;94770;-92
2023/05/08 00:46:10;;;;;;;;;;;16.00;99.90;16.10;99913.00;;;;338195;28;82514;-91
2023/05/08 00:46:22;;;;;;;;;;;16.00;99.90;16.10;99912.00;;;;341344;28;95756;-91
2023/05/08 00:46:35;;;;;;;;;;;16.00;99.90;16.10;99909.00;;;;340718;28;82530;-91
2023/05/08 00:46:47;;;;;;;;;;;16.00;99.90;16.20;99905.00;;;;338283;28;96218;-92
2023/05/08 00:46:59;;;;;;;;;;;16.00;99.90;16.10;99914.00;;;;340342;28;83397;-91
2023/05/08 00:47:11;;;;;;;;;;;16.00;99.90;16.10;99914.00;;;;338591;28;95235;-91
2023/05/08 00:47:23;;;;;;;;;;;16.00;99.90;16.10;99909.00;;;;340760;28;83401;-91
2023/05/08 00:47:35;;;;;;;;;;;15.90;99.90;16.10;99913.00;;;;340044;28;92957;-92
2023/05/08 00:47:46;;;;;;;;;;;16.00;99.90;16.10;99907.00;;;;338097;28;83372;-92
2023/05/08 00:47:58;;;;;;;;;;;15.90;99.90;16.10;99909.00;;;;339989;28;94473;-91
2023/05/08 00:48:11;;;;;;;;;;;16.00;99.90;16.00;99916.00;;;;342048;28;83434;-91
2023/05/08 00:48:23;;;;;;;;;;;15.90;99.90;16.10;99913.00;;;;335838;28;95426;-92
2023/05/08 00:48:35;;;;;;;;;;;15.90;99.90;16.10;99911.00;;;;335515;29;82401;-91
2023/05/08 00:48:47;;;;;;;;;;;15.90;99.90;16.10;99911.00;;;;336112;28;93760;-92
2023/05/08 00:48:59;;;;;;;;;;;15.90;99.90;16.00;99912.00;;;;339501;28;82371;-92
2023/05/08 00:49:13;;;;;;;;;;;15.90;99.90;16.00;99913.00;;;;338566;28;95452;-91
2023/05/08 00:49:25;;;;;;;;;;;15.90;99.90;16.10;99900.00;;;;336851;28;83335;-91
2023/05/08 00:49:36;;;;;;;;;;;15.90;99.90;16.20;99904.00;;;;338719;28;95536;-92
2023/05/08 00:49:48;;;;;;;;;;;15.90;99.90;16.30;99910.00;;;;340740;28;82507;-91
2023/05/08 00:50:00;;;;;;;;;;;15.90;99.90;16.30;99911.00;;;;340000;28;93867;-92
2023/05/08 00:50:12;;;;;;;;;;;16.00;99.90;16.30;99913.00;;;;339387;28;83569;-91
2023/05/08 00:50:24;;;;;;;;;;;16.00;99.90;16.40;99909.00;;;;337378;28;94502;-90
2023/05/08 00:50:36;;;;;;;;;;;16.00;99.90;16.40;99907.00;;;;336791;28;82459;-92
2023/05/08 00:50:49;;;;;;;;;;;16.00;99.90;16.40;99912.00;;;;339807;28;94579;-91
2023/05/08 00:51:03;;;;;;;;;;;16.00;99.90;16.30;99913.00;;;;339194;28;83552;-92
2023/05/08 00:51:15;;;;;;;;;;;16.00;99.90;16.40;99907.00;;;;338540;28;98245;-91
2023/05/08 00:51:27;;;;;;;;;;;16.00;99.90;16.40;99907.00;;;;339414;28;83440;-91
2023/05/08 00:51:40;;;;;;;;;;;16.00;99.90;16.30;99908.00;;;;337274;28;94731;-91
2023/05/08 00:51:53;;;;;;;;;;;16.00;99.90;16.20;99907.00;;;;340760;28;83186;-92
2023/05/08 00:52:07;;;;;;;;;;;16.00;99.90;16.20;99907.00;;;;337295;28;94835;-93
2023/05/08 00:52:21;;;;;;;;;;;16.00;99.90;16.20;99911.00;;;;338063;28;82567;-91
2023/05/08 00:52:33;;;;;;;;;;;16.00;99.90;16.20;99915.00;;;;334710;29;94225;-91
2023/05/08 00:52:45;;;;;;;;;;;16.00;99.90;16.10;99912.00;;;;337843;28;83408;-92
2023/05/08 00:52:57;;;;;;;;;;;16.00;99.90;16.10;99907.00;;;;336096;28;94001;-91
2023/05/08 00:53:08;;;;;;;;;;;16.00;99.90;16.10;99908.00;;;;336648;28;83232;-91
2023/05/08 00:53:21;;;;;;;;;;;16.00;99.90;16.10;99917.00;;;;338427;28;97592;-91
2023/05/08 00:53:35;;;;;;;;;;;15.90;99.90;16.20;99915.00;;;;337875;28;83632;-92
2023/05/08 00:53:47;;;;;;;;;;;16.00;99.90;16.20;99909.00;;;;336054;28;93122;-92
2023/05/08 00:53:59;;;;;;;;;;;16.00;99.90;16.20;99911.00;;;;338076;28;83398;-91
2023/05/08 00:54:10;;;;;;;;;;;16.00;99.90;16.20;99913.00;;;;339755;28;94995;-92
2023/05/08 00:54:22;;;;;;;;;;;16.00;99.90;16.10;99917.00;;;;338190;28;83449;-92
2023/05/08 00:54:37;;;;;;;;;;;16.00;99.90;16.10;99908.00;;;;338546;28;95646;-92
2023/05/08 00:54:49;;;;;;;;;;;16.00;99.90;16.10;99905.00;;;;339467;28;83173;-92
2023/05/08 00:55:01;;;;;;;;;;;15.90;99.90;16.10;99914.00;;;;335820;28;95469;-92
2023/05/08 00:55:13;;;;;;;;;;;15.90;99.90;16.10;99912.00;;;;340411;28;83538;-92
2023/05/08 00:55:26;;;;;;;;;;;15.90;99.90;16.10;99912.00;;;;338616;28;95468;-91
2023/05/08 00:55:37;;;;;;;;;;;15.90;99.90;16.10;99906.00;;;;336817;28;83401;-93
2023/05/08 00:55:50;;;;;;;;;;;15.90;99.90;16.10;99915.00;;;;339851;28;94866;-92
2023/05/08 00:56:03;;;;;;;;;;;15.90;99.90;16.10;99916.00;;;;340473;28;83361;-92
2023/05/08 00:56:15;;;;;;;;;;;15.90;99.90;16.10;99922.00;;;;334583;28;94212;-91
2023/05/08 00:56:27;;;;;;;;;;;15.90;99.90;16.10;99908.00;;;;338186;28;83312;-91
2023/05/08 00:56:39;;;;;;;;;;;15.90;99.90;16.10;99915.00;;;;338373;28;94494;-91
2023/05/08 00:56:52;;;;;;;;;;;15.90;99.90;16.10;99910.00;;;;338003;28;83506;-91
2023/05/08 00:57:06;;;;;;;;;;;15.90;99.90;16.10;99912.00;;;;338257;28;92860;-91
2023/05/08 00:57:18;;;;;;;;;;;15.90;99.90;16.10;99913.00;;;;339502;28;82513;-92
2023/05/08 00:57:33;;;;;;;;;;;15.90;99.90;16.10;99911.00;;;;334683;29;95372;-91
2023/05/08 00:57:45;;;;;;;;;;;15.90;99.90;16.00;99920.00;;;;337880;28;83620;-91
2023/05/08 00:57:57;;;;;;;;;;;15.90;99.90;16.00;99905.00;;;;335996;28;94644;-91
2023/05/08 00:58:09;;;;;;;;;;;15.90;99.90;16.10;99913.00;;;;337869;28;83522;-92
2023/05/08 00:58:21;;;;;;;;;;;15.90;99.90;16.20;99919.00;;;;338686;28;93472;-92
2023/05/08 00:58:33;;;;;;;;;;;15.90;99.90;16.20;99907.00;;;;337804;28;83662;-91
2023/05/08 00:58:46;;;;;;;;;;;15.90;99.90;16.10;99912.00;;;;337421;28;92752;-92
2023/05/08 00:58:59;;;;;;;;;;;15.90;99.90;16.10;99917.00;;;;338121;28;82683;-92
2023/05/08 00:59:12;;;;;;;;;;;15.90;99.90;16.10;99910.00;;;;334633;29;92364;-92
2023/05/08 00:59:24;;;;;;;;;;;15.90;99.90;16.20;99910.00;;;;340539;28;83388;-92
2023/05/08 00:59:36;;;;;;;;;;;15.90;99.90;16.10;99921.00;;;;338683;28;94371;-91
2023/05/08 00:59:48;;;;;;;;;;;15.90;99.90;16.10;99906.00;;;;339470;28;83191;-92
2023/05/08 01:00:00;;;;;;;;;;;15.90;99.90;16.00;99914.00;;;;335616;28;93559;-92
2023/05/08 01:00:13;;;;;;;;;;;15.90;99.90;16.00;99916.00;;;;339269;28;83483;-91